EJU86AF LGAV-LIRN
Flight info
| Callsign | EJU86AF |
|---|---|
| Flight time | 1h 40m |
| Altitude | 36000 |
| Route | KOR UL53 IXONI DCT TIGRA DCT MOKTO DCT DOGUS DCT EKTOL |
| Aircraft | A320/M-SDE2E3FGHIJ1RWXYZ/LB1 |
Departure
| Time | 2026-05-05 19:52 |
|---|---|
| Airport | Athens Eleftherios Venizelos International Airport (LGAV) |
Arrival
| Time | 2026-05-05 21:32 |
|---|---|
| Airport | Naples International Airport (LIRN) |
| Time | Latitude | Longitude | Altitude | Speed | Heading |
|---|---|---|---|---|---|
| 2026-05-05 19:19 | 37.93415 | 23.94648 | 302 ft | 0 kts | 308° |
| 2026-05-05 19:44 | 37.93410 | 23.94655 | 304 ft | 4 kts | 308° |
| 2026-05-05 19:44 | 37.93396 | 23.94679 | 301 ft | 1 kts | 308° |
| 2026-05-05 19:44 | 37.93382 | 23.94704 | 301 ft | 4 kts | 296° |
| 2026-05-05 19:44 | 37.93375 | 23.94734 | 301 ft | 4 kts | 256° |
| 2026-05-05 19:45 | 37.93388 | 23.94757 | 302 ft | 4 kts | 217° |
| 2026-05-05 19:45 | 37.93396 | 23.94765 | 304 ft | 0 kts | 217° |
| 2026-05-05 19:47 | 37.93389 | 23.94758 | 302 ft | 5 kts | 217° |
| 2026-05-05 19:47 | 37.93335 | 23.94706 | 301 ft | 14 kts | 217° |
| 2026-05-05 19:47 | 37.93246 | 23.94620 | 301 ft | 14 kts | 217° |
| 2026-05-05 19:48 | 37.93145 | 23.94592 | 301 ft | 19 kts | 180° |
| 2026-05-05 19:48 | 37.93047 | 23.94566 | 302 ft | 17 kts | 213° |
| 2026-05-05 19:48 | 37.92931 | 23.94454 | 303 ft | 21 kts | 220° |
| 2026-05-05 19:48 | 37.92838 | 23.94430 | 302 ft | 6 kts | 139° |
| 2026-05-05 19:49 | 37.92804 | 23.94460 | 302 ft | 10 kts | 154° |
| 2026-05-05 19:49 | 37.92754 | 23.94432 | 303 ft | 15 kts | 214° |
| 2026-05-05 19:49 | 37.92626 | 23.94323 | 305 ft | 13 kts | 216° |
| 2026-05-05 19:49 | 37.92560 | 23.94292 | 304 ft | 11 kts | 145° |
| 2026-05-05 19:50 | 37.92534 | 23.94331 | 307 ft | 0 kts | 124° |
| 2026-05-05 19:50 | 37.92524 | 23.94348 | 306 ft | 6 kts | 125° |
| 2026-05-05 19:50 | 37.92492 | 23.94412 | 309 ft | 12 kts | 108° |
| 2026-05-05 19:51 | 37.92511 | 23.94476 | 309 ft | 0 kts | 38° |
| 2026-05-05 19:51 | 37.92512 | 23.94478 | 307 ft | 4 kts | 38° |
| 2026-05-05 19:51 | 37.92742 | 23.94696 | 301 ft | 79 kts | 36° |
| 2026-05-05 19:51 | 37.93350 | 23.95273 | 295 ft | 137 kts | 37° |
| 2026-05-05 19:52 | 37.94244 | 23.96096 | 421 ft | 167 kts | 34° |
| 2026-05-05 19:52 | 37.95184 | 23.96889 | 1112 ft | 164 kts | 33° |
| 2026-05-05 19:52 | 37.96109 | 23.97762 | 1698 ft | 166 kts | 39° |
| 2026-05-05 19:52 | 37.97002 | 23.98745 | 2113 ft | 180 kts | 41° |
| 2026-05-05 19:53 | 37.98012 | 23.99835 | 2401 ft | 201 kts | 37° |
| 2026-05-05 19:53 | 37.99203 | 24.00911 | 2746 ft | 219 kts | 33° |
| 2026-05-05 19:53 | 38.00530 | 24.02082 | 3036 ft | 243 kts | 34° |
| 2026-05-05 19:53 | 38.01885 | 24.03361 | 3880 ft | 243 kts | 37° |
| 2026-05-05 19:54 | 38.03228 | 24.04708 | 4673 ft | 249 kts | 37° |
| 2026-05-05 19:54 | 38.04584 | 24.06078 | 5528 ft | 249 kts | 37° |
| 2026-05-05 19:54 | 38.05951 | 24.07422 | 6430 ft | 249 kts | 36° |
| 2026-05-05 19:54 | 38.07331 | 24.08738 | 7301 ft | 247 kts | 34° |
| 2026-05-05 19:55 | 38.08708 | 24.10047 | 8030 ft | 255 kts | 39° |
| 2026-05-05 19:55 | 38.09774 | 24.11970 | 8411 ft | 277 kts | 70° |
| 2026-05-05 19:55 | 38.09860 | 24.14435 | 9178 ft | 291 kts | 101° |
| 2026-05-05 19:55 | 38.08841 | 24.16686 | 9910 ft | 304 kts | 134° |
| 2026-05-05 19:56 | 38.06983 | 24.18000 | 10571 ft | 313 kts | 166° |
| 2026-05-05 19:56 | 38.04815 | 24.17977 | 11229 ft | 316 kts | 198° |
| 2026-05-05 19:56 | 38.02903 | 24.16660 | 11866 ft | 316 kts | 226° |
| 2026-05-05 19:56 | 38.01564 | 24.14395 | 12067 ft | 331 kts | 244° |
| 2026-05-05 19:57 | 38.00477 | 24.11754 | 12492 ft | 342 kts | 248° |
| 2026-05-05 19:57 | 37.99804 | 24.09944 | 12918 ft | 345 kts | 249° |
| 2026-05-05 19:57 | 37.98478 | 24.06216 | 13821 ft | 349 kts | 249° |
| 2026-05-05 19:57 | 37.97475 | 24.03388 | 14422 ft | 353 kts | 249° |
| 2026-05-05 19:58 | 37.96449 | 24.00554 | 15061 ft | 355 kts | 249° |
| 2026-05-05 19:58 | 37.95400 | 23.97708 | 15703 ft | 357 kts | 249° |
| 2026-05-05 19:58 | 37.94332 | 23.94853 | 16345 ft | 359 kts | 249° |
| 2026-05-05 19:58 | 37.93252 | 23.91997 | 16981 ft | 361 kts | 249° |
| 2026-05-05 19:59 | 37.92161 | 23.89125 | 17610 ft | 363 kts | 249° |
| 2026-05-05 19:59 | 37.91063 | 23.86239 | 18236 ft | 365 kts | 249° |
| 2026-05-05 19:59 | 37.89982 | 23.83326 | 18780 ft | 365 kts | 253° |
| 2026-05-05 19:59 | 37.89267 | 23.80270 | 19298 ft | 360 kts | 265° |
| 2026-05-05 20:00 | 37.89071 | 23.78193 | 19655 ft | 358 kts | 272° |
| 2026-05-05 20:00 | 37.89149 | 23.75063 | 20210 ft | 356 kts | 278° |
| 2026-05-05 20:00 | 37.89316 | 23.71932 | 20735 ft | 358 kts | 278° |
| 2026-05-05 20:00 | 37.89478 | 23.68778 | 21269 ft | 360 kts | 278° |
| 2026-05-05 20:01 | 37.89636 | 23.65606 | 21796 ft | 362 kts | 278° |
| 2026-05-05 20:01 | 37.89794 | 23.62418 | 22318 ft | 364 kts | 278° |
| 2026-05-05 20:01 | 37.89954 | 23.59209 | 22839 ft | 366 kts | 278° |
| 2026-05-05 20:01 | 37.90113 | 23.55988 | 23361 ft | 368 kts | 278° |
| 2026-05-05 20:02 | 37.90275 | 23.52740 | 23831 ft | 370 kts | 278° |
| 2026-05-05 20:02 | 37.90439 | 23.49482 | 24254 ft | 372 kts | 278° |
| 2026-05-05 20:02 | 37.90602 | 23.46206 | 24686 ft | 374 kts | 278° |
| 2026-05-05 20:02 | 37.90761 | 23.42921 | 25130 ft | 374 kts | 278° |
| 2026-05-05 20:03 | 37.90917 | 23.39624 | 25528 ft | 375 kts | 278° |
| 2026-05-05 20:03 | 37.91073 | 23.36319 | 25937 ft | 376 kts | 278° |
| 2026-05-05 20:03 | 37.91230 | 23.33007 | 26328 ft | 378 kts | 278° |
| 2026-05-05 20:03 | 37.91386 | 23.29679 | 26716 ft | 379 kts | 278° |
| 2026-05-05 20:04 | 37.91544 | 23.26340 | 27094 ft | 380 kts | 278° |
| 2026-05-05 20:04 | 37.91702 | 23.22996 | 27473 ft | 381 kts | 278° |
| 2026-05-05 20:04 | 37.91859 | 23.19640 | 27839 ft | 383 kts | 279° |
| 2026-05-05 20:04 | 37.92016 | 23.16275 | 28205 ft | 384 kts | 279° |
| 2026-05-05 20:05 | 37.92172 | 23.12896 | 28554 ft | 385 kts | 279° |
| 2026-05-05 20:05 | 37.92328 | 23.09497 | 28872 ft | 387 kts | 279° |
| 2026-05-05 20:05 | 37.92485 | 23.06090 | 29190 ft | 389 kts | 279° |
| 2026-05-05 20:05 | 37.92641 | 23.02672 | 29508 ft | 390 kts | 279° |
| 2026-05-05 20:06 | 37.92796 | 22.99229 | 29743 ft | 393 kts | 279° |
| 2026-05-05 20:06 | 37.93147 | 22.95819 | 30036 ft | 388 kts | 288° |
| 2026-05-05 20:06 | 37.93969 | 22.92585 | 30306 ft | 384 kts | 297° |
| 2026-05-05 20:06 | 37.95231 | 22.89629 | 30551 ft | 382 kts | 307° |
| 2026-05-05 20:07 | 37.96757 | 22.86866 | 30818 ft | 382 kts | 307° |
| 2026-05-05 20:07 | 37.98279 | 22.84110 | 31069 ft | 384 kts | 307° |
| 2026-05-05 20:07 | 37.99816 | 22.81324 | 31303 ft | 385 kts | 307° |
| 2026-05-05 20:07 | 38.01349 | 22.78538 | 31526 ft | 386 kts | 307° |
| 2026-05-05 20:08 | 38.02873 | 22.75757 | 31723 ft | 388 kts | 307° |
| 2026-05-05 20:08 | 38.04412 | 22.72945 | 32011 ft | 388 kts | 307° |
| 2026-05-05 20:08 | 38.05947 | 22.70138 | 32314 ft | 387 kts | 307° |
| 2026-05-05 20:08 | 38.07483 | 22.67333 | 32615 ft | 386 kts | 307° |
| 2026-05-05 20:09 | 38.08984 | 22.64564 | 32878 ft | 387 kts | 306° |
| 2026-05-05 20:09 | 38.10460 | 22.61705 | 33129 ft | 387 kts | 305° |
| 2026-05-05 20:09 | 38.11898 | 22.58815 | 33407 ft | 387 kts | 304° |
| 2026-05-05 20:09 | 38.13319 | 22.55911 | 33702 ft | 387 kts | 304° |
| 2026-05-05 20:10 | 38.14735 | 22.53007 | 33988 ft | 386 kts | 304° |
| 2026-05-05 20:10 | 38.16154 | 22.50110 | 34246 ft | 386 kts | 305° |
| 2026-05-05 20:10 | 38.17580 | 22.47220 | 34486 ft | 385 kts | 305° |
| 2026-05-05 20:10 | 38.19008 | 22.44343 | 34694 ft | 386 kts | 304° |
| 2026-05-05 20:11 | 38.20445 | 22.41452 | 34839 ft | 387 kts | 304° |
| 2026-05-05 20:11 | 38.21880 | 22.38556 | 35027 ft | 388 kts | 304° |
| 2026-05-05 20:11 | 38.23315 | 22.35654 | 35237 ft | 387 kts | 304° |
| 2026-05-05 20:11 | 38.24749 | 22.32753 | 35449 ft | 387 kts | 304° |
| 2026-05-05 20:12 | 38.26176 | 22.29864 | 35667 ft | 386 kts | 304° |
| 2026-05-05 20:12 | 38.27608 | 22.26961 | 35870 ft | 386 kts | 303° |
| 2026-05-05 20:12 | 38.29029 | 22.24072 | 36061 ft | 386 kts | 303° |
| 2026-05-05 20:13 | 38.31883 | 22.18291 | 36136 ft | 384 kts | 303° |
| 2026-05-05 20:13 | 38.34727 | 22.12562 | 36114 ft | 382 kts | 303° |
| 2026-05-05 20:14 | 38.37570 | 22.06805 | 36132 ft | 384 kts | 303° |
| 2026-05-05 20:14 | 38.40419 | 22.01039 | 36133 ft | 384 kts | 303° |
| 2026-05-05 20:15 | 38.43265 | 21.95276 | 36134 ft | 385 kts | 303° |
| 2026-05-05 20:15 | 38.46099 | 21.89506 | 36139 ft | 385 kts | 303° |
| 2026-05-05 20:16 | 38.48937 | 21.83708 | 36143 ft | 386 kts | 303° |
| 2026-05-05 20:16 | 38.51780 | 21.77899 | 36138 ft | 386 kts | 303° |
| 2026-05-05 20:17 | 38.54625 | 21.72080 | 36146 ft | 387 kts | 303° |
| 2026-05-05 20:17 | 38.57477 | 21.66241 | 36141 ft | 387 kts | 303° |
| 2026-05-05 20:18 | 38.60324 | 21.60410 | 36143 ft | 387 kts | 303° |
| 2026-05-05 20:18 | 38.63163 | 21.54565 | 36143 ft | 387 kts | 302° |
| 2026-05-05 20:19 | 38.65995 | 21.48722 | 36144 ft | 387 kts | 303° |
| 2026-05-05 20:19 | 38.68835 | 21.42868 | 36143 ft | 387 kts | 303° |
| 2026-05-05 20:20 | 38.71663 | 21.37011 | 36148 ft | 387 kts | 302° |
| 2026-05-05 20:20 | 38.73596 | 21.33000 | 36142 ft | 387 kts | 302° |
| 2026-05-05 20:21 | 38.76440 | 21.27097 | 36149 ft | 387 kts | 302° |
| 2026-05-05 20:21 | 38.79244 | 21.21275 | 36144 ft | 387 kts | 302° |
| 2026-05-05 20:22 | 38.82065 | 21.15401 | 36144 ft | 387 kts | 302° |
| 2026-05-05 20:22 | 38.84887 | 21.09520 | 36141 ft | 387 kts | 302° |
| 2026-05-05 20:23 | 38.87705 | 21.03631 | 36139 ft | 387 kts | 302° |
| 2026-05-05 20:23 | 38.90516 | 20.97744 | 36140 ft | 387 kts | 302° |
| 2026-05-05 20:24 | 38.93085 | 20.92368 | 36141 ft | 387 kts | 302° |
| 2026-05-05 20:24 | 38.95894 | 20.86465 | 36139 ft | 387 kts | 302° |
| 2026-05-05 20:25 | 38.98699 | 20.80550 | 36129 ft | 387 kts | 302° |
| 2026-05-05 20:25 | 39.01495 | 20.74641 | 36138 ft | 387 kts | 302° |
| 2026-05-05 20:26 | 39.04289 | 20.68736 | 36139 ft | 386 kts | 302° |
| 2026-05-05 20:26 | 39.07082 | 20.62829 | 36140 ft | 386 kts | 302° |
| 2026-05-05 20:27 | 39.09876 | 20.56921 | 36139 ft | 386 kts | 302° |
| 2026-05-05 20:27 | 39.12662 | 20.51009 | 36135 ft | 386 kts | 302° |
| 2026-05-05 20:28 | 39.15442 | 20.45088 | 36129 ft | 387 kts | 301° |
| 2026-05-05 20:28 | 39.18226 | 20.39155 | 36133 ft | 387 kts | 301° |
| 2026-05-05 20:29 | 39.21007 | 20.33215 | 36128 ft | 387 kts | 301° |
| 2026-05-05 20:29 | 39.23778 | 20.27261 | 36130 ft | 387 kts | 301° |
| 2026-05-05 20:30 | 39.26554 | 20.21307 | 36130 ft | 387 kts | 301° |
| 2026-05-05 20:30 | 39.29332 | 20.15351 | 36127 ft | 387 kts | 301° |
| 2026-05-05 20:31 | 39.32105 | 20.09387 | 36123 ft | 389 kts | 301° |
| 2026-05-05 20:31 | 39.34885 | 20.03390 | 36117 ft | 389 kts | 301° |
| 2026-05-05 20:32 | 39.37665 | 19.97388 | 36117 ft | 389 kts | 301° |
| 2026-05-05 20:32 | 39.40441 | 19.91369 | 36113 ft | 390 kts | 301° |
| 2026-05-05 20:33 | 39.43211 | 19.85346 | 36112 ft | 390 kts | 301° |
| 2026-05-05 20:33 | 39.45988 | 19.79322 | 36107 ft | 390 kts | 301° |
| 2026-05-05 20:34 | 39.48767 | 19.73274 | 36111 ft | 391 kts | 301° |
| 2026-05-05 20:34 | 39.51540 | 19.67216 | 36114 ft | 391 kts | 301° |
| 2026-05-05 20:35 | 39.54310 | 19.61162 | 36112 ft | 391 kts | 301° |
| 2026-05-05 20:35 | 39.57084 | 19.55092 | 36112 ft | 391 kts | 301° |
| 2026-05-05 20:36 | 39.59852 | 19.49018 | 36113 ft | 391 kts | 301° |
| 2026-05-05 20:36 | 39.62612 | 19.42945 | 36112 ft | 391 kts | 301° |
| 2026-05-05 20:37 | 39.65381 | 19.36850 | 36113 ft | 392 kts | 301° |
| 2026-05-05 20:37 | 39.68142 | 19.30754 | 36114 ft | 392 kts | 301° |
| 2026-05-05 20:38 | 39.70893 | 19.24659 | 36114 ft | 392 kts | 301° |
| 2026-05-05 20:38 | 39.73649 | 19.18561 | 36122 ft | 390 kts | 301° |
| 2026-05-05 20:39 | 39.76386 | 19.12492 | 36114 ft | 389 kts | 301° |
| 2026-05-05 20:39 | 39.79122 | 19.06422 | 36114 ft | 389 kts | 301° |
| 2026-05-05 20:40 | 39.81847 | 19.00347 | 36116 ft | 389 kts | 301° |
| 2026-05-05 20:40 | 39.84563 | 18.94269 | 36111 ft | 389 kts | 301° |
| 2026-05-05 20:41 | 39.87282 | 18.88182 | 36112 ft | 389 kts | 301° |
| 2026-05-05 20:41 | 39.89977 | 18.82131 | 36106 ft | 389 kts | 301° |
| 2026-05-05 20:42 | 39.92708 | 18.76003 | 36106 ft | 389 kts | 301° |
| 2026-05-05 20:42 | 39.95415 | 18.69901 | 36107 ft | 389 kts | 301° |
| 2026-05-05 20:43 | 39.98124 | 18.63792 | 36104 ft | 389 kts | 301° |
| 2026-05-05 20:43 | 40.00831 | 18.57685 | 36104 ft | 389 kts | 301° |
| 2026-05-05 20:44 | 40.03083 | 18.52602 | 36099 ft | 389 kts | 301° |
| 2026-05-05 20:44 | 40.05782 | 18.46483 | 36097 ft | 389 kts | 301° |
| 2026-05-05 20:45 | 40.10269 | 18.36285 | 36102 ft | 390 kts | 300° |
| 2026-05-05 20:45 | 40.12527 | 18.31129 | 36105 ft | 391 kts | 300° |
| 2026-05-05 20:46 | 40.15221 | 18.24956 | 36110 ft | 391 kts | 300° |
| 2026-05-05 20:46 | 40.17919 | 18.18791 | 36111 ft | 391 kts | 300° |
| 2026-05-05 20:47 | 40.20613 | 18.12609 | 36111 ft | 391 kts | 300° |
| 2026-05-05 20:47 | 40.23302 | 18.06432 | 36112 ft | 391 kts | 300° |
| 2026-05-05 20:48 | 40.25992 | 18.00247 | 36110 ft | 391 kts | 300° |
| 2026-05-05 20:48 | 40.28673 | 17.94052 | 36105 ft | 391 kts | 300° |
| 2026-05-05 20:49 | 40.31353 | 17.87852 | 36098 ft | 391 kts | 300° |
| 2026-05-05 20:49 | 40.34029 | 17.81656 | 36093 ft | 391 kts | 300° |
| 2026-05-05 20:50 | 40.36705 | 17.75447 | 36081 ft | 391 kts | 300° |
| 2026-05-05 20:50 | 40.39384 | 17.69218 | 36078 ft | 393 kts | 300° |
| 2026-05-05 20:51 | 40.42068 | 17.62974 | 36075 ft | 392 kts | 300° |
| 2026-05-05 20:51 | 40.44731 | 17.56750 | 36076 ft | 391 kts | 300° |
| 2026-05-05 20:52 | 40.47390 | 17.50524 | 36076 ft | 391 kts | 300° |
| 2026-05-05 20:52 | 40.50047 | 17.44296 | 36073 ft | 391 kts | 300° |
| 2026-05-05 20:53 | 40.52683 | 17.38098 | 36072 ft | 392 kts | 299° |
| 2026-05-05 20:53 | 40.55366 | 17.31790 | 36073 ft | 393 kts | 299° |
| 2026-05-05 20:54 | 40.58027 | 17.25500 | 36070 ft | 393 kts | 299° |
| 2026-05-05 20:54 | 40.60686 | 17.19208 | 36070 ft | 393 kts | 299° |
| 2026-05-05 20:55 | 40.62820 | 17.12588 | 36077 ft | 394 kts | 291° |
| 2026-05-05 20:55 | 40.64732 | 17.05825 | 36080 ft | 394 kts | 291° |
| 2026-05-05 20:56 | 40.66624 | 16.99108 | 36082 ft | 395 kts | 291° |
| 2026-05-05 20:56 | 40.68529 | 16.92322 | 36084 ft | 395 kts | 291° |
| 2026-05-05 20:57 | 40.70441 | 16.85539 | 36077 ft | 395 kts | 291° |
| 2026-05-05 20:57 | 40.72352 | 16.78753 | 36080 ft | 395 kts | 291° |
| 2026-05-05 20:58 | 40.74241 | 16.71953 | 36073 ft | 395 kts | 290° |
| 2026-05-05 20:58 | 40.76124 | 16.65154 | 36022 ft | 395 kts | 290° |
| 2026-05-05 20:59 | 40.77066 | 16.61767 | 35762 ft | 391 kts | 290° |
| 2026-05-05 20:59 | 40.78000 | 16.58410 | 35519 ft | 389 kts | 290° |
| 2026-05-05 20:59 | 40.78929 | 16.55074 | 35263 ft | 385 kts | 290° |
| 2026-05-05 20:59 | 40.79845 | 16.51775 | 35015 ft | 382 kts | 290° |
| 2026-05-05 21:00 | 40.80754 | 16.48490 | 34765 ft | 380 kts | 290° |
| 2026-05-05 21:00 | 40.81651 | 16.45229 | 34527 ft | 377 kts | 290° |
| 2026-05-05 21:00 | 40.82540 | 16.41980 | 34291 ft | 375 kts | 290° |
| 2026-05-05 21:00 | 40.83426 | 16.38747 | 34044 ft | 373 kts | 290° |
| 2026-05-05 21:01 | 40.84304 | 16.35555 | 33668 ft | 367 kts | 290° |
| 2026-05-05 21:01 | 40.85172 | 16.32413 | 33229 ft | 362 kts | 290° |
| 2026-05-05 21:01 | 40.86026 | 16.29302 | 32799 ft | 358 kts | 289° |
| 2026-05-05 21:01 | 40.86867 | 16.26235 | 32378 ft | 354 kts | 289° |
| 2026-05-05 21:02 | 40.87703 | 16.23184 | 31954 ft | 351 kts | 289° |
| 2026-05-05 21:02 | 40.88528 | 16.20162 | 31552 ft | 348 kts | 289° |
| 2026-05-05 21:02 | 40.89342 | 16.17172 | 31147 ft | 345 kts | 289° |
| 2026-05-05 21:02 | 40.90151 | 16.14207 | 30751 ft | 342 kts | 289° |
| 2026-05-05 21:03 | 40.90957 | 16.11262 | 30361 ft | 339 kts | 289° |
| 2026-05-05 21:03 | 40.91754 | 16.08340 | 29951 ft | 336 kts | 289° |
| 2026-05-05 21:03 | 40.92505 | 16.05435 | 29589 ft | 331 kts | 287° |
| 2026-05-05 21:03 | 40.93156 | 16.02536 | 29222 ft | 327 kts | 285° |
| 2026-05-05 21:04 | 40.93751 | 15.99638 | 28864 ft | 326 kts | 284° |
| 2026-05-05 21:04 | 40.94321 | 15.96755 | 28519 ft | 324 kts | 284° |
| 2026-05-05 21:04 | 40.94891 | 15.93879 | 28161 ft | 322 kts | 284° |
| 2026-05-05 21:04 | 40.95466 | 15.91026 | 27807 ft | 321 kts | 284° |
| 2026-05-05 21:05 | 40.96049 | 15.88180 | 27445 ft | 320 kts | 284° |
| 2026-05-05 21:05 | 40.96639 | 15.85346 | 27082 ft | 319 kts | 284° |
| 2026-05-05 21:05 | 40.97229 | 15.82528 | 26718 ft | 318 kts | 284° |
| 2026-05-05 21:05 | 40.97820 | 15.79715 | 26355 ft | 317 kts | 284° |
| 2026-05-05 21:06 | 40.98408 | 15.76906 | 25993 ft | 316 kts | 284° |
| 2026-05-05 21:06 | 40.98989 | 15.74108 | 25610 ft | 315 kts | 284° |
| 2026-05-05 21:06 | 40.99568 | 15.71315 | 25224 ft | 314 kts | 284° |
| 2026-05-05 21:06 | 41.00146 | 15.68523 | 24827 ft | 314 kts | 284° |
| 2026-05-05 21:07 | 41.00725 | 15.65742 | 24388 ft | 314 kts | 284° |
| 2026-05-05 21:07 | 41.01308 | 15.62958 | 23966 ft | 314 kts | 284° |
| 2026-05-05 21:07 | 41.01891 | 15.60172 | 23499 ft | 315 kts | 284° |
| 2026-05-05 21:07 | 41.02475 | 15.57377 | 23032 ft | 314 kts | 284° |
| 2026-05-05 21:08 | 41.03057 | 15.54590 | 22610 ft | 313 kts | 284° |
| 2026-05-05 21:08 | 41.03633 | 15.51823 | 22189 ft | 311 kts | 284° |
| 2026-05-05 21:08 | 41.04207 | 15.49067 | 21773 ft | 310 kts | 284° |
| 2026-05-05 21:08 | 41.04779 | 15.46317 | 21356 ft | 309 kts | 284° |
| 2026-05-05 21:09 | 41.05347 | 15.43581 | 20945 ft | 308 kts | 284° |
| 2026-05-05 21:09 | 41.05913 | 15.40843 | 20536 ft | 308 kts | 284° |
| 2026-05-05 21:09 | 41.06476 | 15.38110 | 20136 ft | 307 kts | 284° |
| 2026-05-05 21:09 | 41.07038 | 15.35380 | 19728 ft | 307 kts | 284° |
| 2026-05-05 21:10 | 41.07601 | 15.32648 | 19318 ft | 307 kts | 284° |
| 2026-05-05 21:10 | 41.08162 | 15.29915 | 18914 ft | 307 kts | 284° |
| 2026-05-05 21:10 | 41.08722 | 15.27178 | 18520 ft | 308 kts | 283° |
| 2026-05-05 21:10 | 41.09283 | 15.24435 | 18080 ft | 308 kts | 283° |
| 2026-05-05 21:11 | 41.09832 | 15.21695 | 17667 ft | 307 kts | 280° |
| 2026-05-05 21:11 | 41.09994 | 15.18899 | 17277 ft | 304 kts | 264° |
| 2026-05-05 21:11 | 41.09551 | 15.16183 | 16928 ft | 301 kts | 249° |
| 2026-05-05 21:11 | 41.08546 | 15.13738 | 16751 ft | 305 kts | 234° |
| 2026-05-05 21:12 | 41.07178 | 15.11583 | 16531 ft | 306 kts | 231° |
| 2026-05-05 21:12 | 41.05789 | 15.09452 | 16314 ft | 305 kts | 231° |
| 2026-05-05 21:12 | 41.04402 | 15.07328 | 16088 ft | 305 kts | 231° |
| 2026-05-05 21:12 | 41.03014 | 15.05203 | 15866 ft | 304 kts | 230° |
| 2026-05-05 21:13 | 41.01630 | 15.03085 | 15646 ft | 304 kts | 230° |
| 2026-05-05 21:13 | 41.00248 | 15.00971 | 15426 ft | 303 kts | 230° |
| 2026-05-05 21:13 | 40.98866 | 14.98861 | 15203 ft | 304 kts | 230° |
| 2026-05-05 21:13 | 40.97485 | 14.96751 | 14987 ft | 303 kts | 230° |
| 2026-05-05 21:14 | 40.96106 | 14.94636 | 14770 ft | 303 kts | 231° |
| 2026-05-05 21:14 | 40.94735 | 14.92530 | 14561 ft | 302 kts | 230° |
| 2026-05-05 21:14 | 40.93363 | 14.90430 | 14342 ft | 301 kts | 230° |
| 2026-05-05 21:14 | 40.91995 | 14.88346 | 14125 ft | 300 kts | 230° |
| 2026-05-05 21:15 | 40.90628 | 14.86266 | 13907 ft | 300 kts | 230° |
| 2026-05-05 21:15 | 40.89280 | 14.84215 | 13683 ft | 299 kts | 230° |
| 2026-05-05 21:15 | 40.87992 | 14.82058 | 13459 ft | 297 kts | 239° |
| 2026-05-05 21:15 | 40.86911 | 14.79743 | 13242 ft | 296 kts | 239° |
| 2026-05-05 21:16 | 40.85821 | 14.77420 | 13009 ft | 296 kts | 239° |
| 2026-05-05 21:16 | 40.84737 | 14.75117 | 12793 ft | 295 kts | 239° |
| 2026-05-05 21:16 | 40.83658 | 14.72827 | 12574 ft | 293 kts | 239° |
| 2026-05-05 21:16 | 40.82594 | 14.70570 | 12413 ft | 284 kts | 239° |
| 2026-05-05 21:17 | 40.81795 | 14.68259 | 12277 ft | 272 kts | 262° |
| 2026-05-05 21:17 | 40.81962 | 14.65859 | 12159 ft | 262 kts | 292° |
| 2026-05-05 21:17 | 40.83035 | 14.63981 | 11977 ft | 258 kts | 322° |
| 2026-05-05 21:17 | 40.84545 | 14.62695 | 11789 ft | 259 kts | 326° |
| 2026-05-05 21:18 | 40.86056 | 14.61459 | 11586 ft | 259 kts | 326° |
| 2026-05-05 21:18 | 40.87610 | 14.60204 | 11386 ft | 259 kts | 329° |
| 2026-05-05 21:18 | 40.89331 | 14.59573 | 11178 ft | 261 kts | 360° |
| 2026-05-05 21:18 | 40.91046 | 14.60214 | 11004 ft | 265 kts | 32° |
| 2026-05-05 21:19 | 40.92320 | 14.62010 | 10860 ft | 268 kts | 58° |
| 2026-05-05 21:19 | 40.93273 | 14.64103 | 10699 ft | 270 kts | 58° |
| 2026-05-05 21:19 | 40.94250 | 14.66207 | 10545 ft | 269 kts | 57° |
| 2026-05-05 21:19 | 40.95233 | 14.68303 | 10389 ft | 268 kts | 57° |
| 2026-05-05 21:20 | 40.96230 | 14.70425 | 10227 ft | 268 kts | 57° |
| 2026-05-05 21:20 | 40.97203 | 14.72500 | 10074 ft | 267 kts | 57° |
| 2026-05-05 21:20 | 40.98167 | 14.74556 | 9909 ft | 266 kts | 57° |
| 2026-05-05 21:20 | 40.99153 | 14.76663 | 9749 ft | 266 kts | 57° |
| 2026-05-05 21:21 | 41.00112 | 14.78717 | 9598 ft | 265 kts | 57° |
| 2026-05-05 21:21 | 41.01082 | 14.80796 | 9442 ft | 265 kts | 57° |
| 2026-05-05 21:21 | 41.02050 | 14.82866 | 9285 ft | 264 kts | 57° |
| 2026-05-05 21:21 | 41.03030 | 14.84923 | 9137 ft | 263 kts | 52° |
| 2026-05-05 21:22 | 41.04392 | 14.86419 | 8987 ft | 253 kts | 19° |
| 2026-05-05 21:22 | 41.06087 | 14.86702 | 8829 ft | 245 kts | 346° |
| 2026-05-05 21:22 | 41.07615 | 14.85806 | 8680 ft | 241 kts | 322° |
| 2026-05-05 21:22 | 41.09004 | 14.84553 | 8513 ft | 241 kts | 325° |
| 2026-05-05 21:23 | 41.10426 | 14.83388 | 8365 ft | 238 kts | 326° |
| 2026-05-05 21:23 | 41.11605 | 14.81951 | 8222 ft | 232 kts | 298° |
| 2026-05-05 21:23 | 41.12014 | 14.79884 | 8076 ft | 236 kts | 265° |
| 2026-05-05 21:23 | 41.11472 | 14.77853 | 7908 ft | 238 kts | 237° |
| 2026-05-05 21:24 | 41.10555 | 14.76025 | 7724 ft | 236 kts | 238° |
| 2026-05-05 21:24 | 41.09700 | 14.74215 | 7571 ft | 228 kts | 239° |
| 2026-05-05 21:24 | 41.08891 | 14.72466 | 7436 ft | 218 kts | 239° |
| 2026-05-05 21:24 | 41.08108 | 14.70767 | 7319 ft | 215 kts | 239° |
| 2026-05-05 21:25 | 41.07327 | 14.69078 | 7191 ft | 214 kts | 239° |
| 2026-05-05 21:25 | 41.06546 | 14.67397 | 7071 ft | 214 kts | 239° |
| 2026-05-05 21:25 | 41.05767 | 14.65721 | 6951 ft | 214 kts | 239° |
| 2026-05-05 21:25 | 41.04989 | 14.64050 | 6699 ft | 213 kts | 239° |
| 2026-05-05 21:26 | 41.04211 | 14.62381 | 6395 ft | 213 kts | 239° |
| 2026-05-05 21:26 | 41.03435 | 14.60716 | 6081 ft | 213 kts | 239° |
| 2026-05-05 21:26 | 41.02657 | 14.59049 | 5758 ft | 213 kts | 239° |
| 2026-05-05 21:26 | 41.01879 | 14.57382 | 5444 ft | 213 kts | 239° |
| 2026-05-05 21:27 | 41.01103 | 14.55722 | 5146 ft | 213 kts | 239° |
| 2026-05-05 21:27 | 41.00321 | 14.54048 | 4829 ft | 214 kts | 239° |
| 2026-05-05 21:27 | 40.99542 | 14.52383 | 4507 ft | 209 kts | 238° |
| 2026-05-05 21:27 | 40.99042 | 14.51312 | 4295 ft | 204 kts | 238° |
| 2026-05-05 21:28 | 40.98304 | 14.49737 | 4005 ft | 197 kts | 238° |
| 2026-05-05 21:28 | 40.97589 | 14.48210 | 3729 ft | 195 kts | 238° |
| 2026-05-05 21:28 | 40.96876 | 14.46686 | 3440 ft | 194 kts | 238° |
| 2026-05-05 21:28 | 40.96162 | 14.45164 | 3152 ft | 195 kts | 238° |
| 2026-05-05 21:29 | 40.95461 | 14.43667 | 2888 ft | 186 kts | 237° |
| 2026-05-05 21:29 | 40.94795 | 14.42249 | 2595 ft | 177 kts | 237° |
| 2026-05-05 21:29 | 40.94162 | 14.40899 | 2343 ft | 168 kts | 237° |
| 2026-05-05 21:29 | 40.93564 | 14.39624 | 2087 ft | 159 kts | 237° |
| 2026-05-05 21:30 | 40.92999 | 14.38424 | 1875 ft | 148 kts | 238° |
| 2026-05-05 21:30 | 40.92460 | 14.37276 | 1647 ft | 145 kts | 238° |
| 2026-05-05 21:30 | 40.91931 | 14.36151 | 1401 ft | 144 kts | 238° |
| 2026-05-05 21:30 | 40.91403 | 14.35028 | 1185 ft | 144 kts | 238° |
| 2026-05-05 21:31 | 40.90873 | 14.33900 | 977 ft | 144 kts | 238° |
| 2026-05-05 21:31 | 40.90344 | 14.32776 | 753 ft | 144 kts | 238° |
| 2026-05-05 21:31 | 40.89817 | 14.31655 | 575 ft | 143 kts | 238° |
| 2026-05-05 21:31 | 40.89296 | 14.30543 | 336 ft | 141 kts | 238° |
| 2026-05-05 21:32 | 40.88791 | 14.29468 | 259 ft | 126 kts | 238° |
| 2026-05-05 21:32 | 40.88459 | 14.28764 | 275 ft | 49 kts | 238° |
| 2026-05-05 21:32 | 40.88289 | 14.28476 | 282 ft | 34 kts | 220° |
| 2026-05-05 21:32 | 40.88137 | 14.28356 | 286 ft | 19 kts | 207° |
| 2026-05-05 21:33 | 40.88108 | 14.28336 | 290 ft | 0 kts | 207° |
| 2026-05-05 21:34 | 40.88097 | 14.28328 | 287 ft | 7 kts | 206° |
| 2026-05-05 21:35 | 40.88066 | 14.28239 | 293 ft | 16 kts | 253° |
| 2026-05-05 21:35 | 40.88005 | 14.28130 | 296 ft | 13 kts | 216° |
| 2026-05-05 21:35 | 40.87923 | 14.28063 | 296 ft | 8 kts | 227° |
| 2026-05-05 21:35 | 40.87889 | 14.28008 | 299 ft | 0 kts | 231° |